Time;durP1;ratioP1;P1;durP2;ratioP2;P2;SDS_P1;SDS_P2;PMS_P1;PMS_P2;Temp;Humidity;BMP_temperature;BMP_pressure;BME280_temperature;BME280_humidity;BME280_pressure;Samples;Min_cycle;Max_cycle;Signal;HPM_P1;HPM_P2
2022/12/03 00:01:27;;;;;;;57.30;51.70;;;;;;;-1.42;95.83;98598.33;104738;1329;22208;-85
2022/12/03 00:03:55;;;;;;;53.00;47.50;;;;;;;-1.46;95.89;98595.89;104782;1329;22224;-86
2022/12/03 00:06:23;;;;;;;52.80;47.30;;;;;;;-1.46;95.93;98599.82;104834;1323;22634;-86
2022/12/03 00:08:53;;;;;;;52.00;46.70;;;;;;;-1.47;96.01;98593.44;104723;1329;22075;-85
2022/12/03 00:11:21;;;;;;;50.60;45.40;;;;;;;-1.44;95.79;98605.52;104821;1317;22174;-86
2022/12/03 00:13:49;;;;;;;50.00;45.00;;;;;;;-1.40;96.02;98610.32;104512;1330;22826;-85
2022/12/03 00:16:17;;;;;;;51.60;46.50;;;;;;;-1.37;96.01;98618.16;104783;1329;22111;-87
2022/12/03 00:18:45;;;;;;;55.70;50.30;;;;;;;-1.38;95.94;98616.88;104534;1329;23560;-86
2022/12/03 00:21:13;;;;;;;53.10;47.40;;;;;;;-1.42;96.13;98614.75;104766;1329;22183;-82
2022/12/03 00:23:41;;;;;;;52.50;47.30;;;;;;;-1.39;95.90;98615.41;104660;1329;22229;-83
2022/12/03 00:26:09;;;;;;;53.90;48.60;;;;;;;-1.36;95.93;98617.52;104783;1328;22925;-83
2022/12/03 00:28:37;;;;;;;51.60;46.10;;;;;;;-1.30;96.33;98625.48;104751;1329;22212;-86
2022/12/03 00:31:05;;;;;;;54.00;48.60;;;;;;;-0.95;97.35;98620.07;104542;1328;22261;-86
2022/12/03 00:33:33;;;;;;;54.90;49.50;;;;;;;-0.88;96.15;98619.17;104713;1330;22939;-86
2022/12/03 00:36:01;;;;;;;58.40;52.30;;;;;;;-1.00;95.76;98617.06;104759;1330;22275;-86
2022/12/03 00:38:29;;;;;;;56.30;50.80;;;;;;;-1.07;95.87;98614.47;104872;1329;22069;-89
2022/12/03 00:40:56;;;;;;;58.60;52.80;;;;;;;-1.16;95.55;98616.98;105263;1300;22175;-88
2022/12/03 00:43:31;;;;;;;57.90;51.90;;;;;;;-1.17;96.09;98618.45;105576;1289;22279;31
2022/12/03 00:45:59;;;;;;;;;;;;;;;-1.16;95.87;98612.86;105118;1322;22374;-90
2022/12/03 00:48:27;;;;;;;56.10;50.30;;;;;;;-1.19;95.77;98614.30;104905;1329;22220;-84
2022/12/03 00:50:55;;;;;;;57.10;51.50;;;;;;;-1.19;95.84;98608.31;105165;1308;22182;-93
2022/12/03 00:53:23;;;;;;;56.80;50.70;;;;;;;-1.19;95.93;98599.56;105056;1320;22189;-90
2022/12/03 00:55:51;;;;;;;56.00;50.50;;;;;;;-1.22;95.98;98604.77;104926;1330;22085;-89
2022/12/03 00:58:19;;;;;;;51.10;46.10;;;;;;;-1.29;96.11;98608.52;105031;1320;22239;-89
2022/12/03 01:00:47;;;;;;;52.40;47.10;;;;;;;-1.33;95.80;98602.80;104978;1329;22084;-92
2022/12/03 01:03:14;;;;;;;50.90;45.70;;;;;;;-1.34;96.02;98604.55;104686;1330;22110;-88
2022/12/03 01:05:46;;;;;;;51.10;46.10;;;;;;;-1.33;95.99;98604.00;104862;1329;22140;-87
2022/12/03 01:08:14;;;;;;;51.00;45.80;;;;;;;-1.31;96.04;98601.29;104851;1329;22329;-89
2022/12/03 01:10:42;;;;;;;53.10;48.00;;;;;;;-1.30;96.33;98595.73;104736;1329;23388;-87
2022/12/03 01:13:10;;;;;;;53.60;48.10;;;;;;;-1.32;96.13;98598.52;104769;1328;22159;-89
2022/12/03 01:15:38;;;;;;;51.70;46.70;;;;;;;-1.34;96.28;98596.16;104753;1329;22244;-89
2022/12/03 01:18:06;;;;;;;50.70;45.50;;;;;;;-1.38;96.06;98596.61;104553;1329;22843;-89
2022/12/03 01:20:35;;;;;;;50.80;45.80;;;;;;;-1.36;96.03;98599.38;104505;1327;22218;-89
2022/12/03 01:23:03;;;;;;;48.60;43.80;;;;;;;-1.34;96.19;98592.25;104768;1329;22311;-89
2022/12/03 01:25:31;;;;;;;53.80;48.40;;;;;;;-1.30;96.25;98589.27;104537;1332;22216;-89
2022/12/03 01:27:59;;;;;;;54.10;48.70;;;;;;;-1.29;96.35;98593.64;104558;1330;22271;-88
2022/12/03 01:30:27;;;;;;;58.00;51.80;;;;;;;-1.32;96.39;98587.90;104822;1323;22792;-89
2022/12/03 01:32:55;;;;;;;55.00;48.60;;;;;;;-1.35;96.30;98587.62;104942;1308;22872;-88
2022/12/03 01:35:23;;;;;;;51.80;46.80;;;;;;;-1.35;96.45;98584.12;104762;1329;22854;-88
2022/12/03 01:37:51;;;;;;;48.50;43.50;;;;;;;-1.34;96.31;98584.23;104927;1321;22284;-88
2022/12/03 01:40:20;;;;;;;51.50;46.50;;;;;;;-1.29;96.51;98583.59;104638;1329;22848;-88
2022/12/03 01:42:48;;;;;;;53.90;48.60;;;;;;;-1.28;96.45;98581.07;104771;1322;22359;-87
2022/12/03 01:45:21;;;;;;;53.20;48.20;;;;;;;-1.30;96.36;98577.49;104951;1322;22207;-88
2022/12/03 01:47:49;;;;;;;52.90;47.70;;;;;;;-1.36;96.36;98578.15;104759;1329;22401;-89
2022/12/03 01:50:29;;;;;;;50.80;45.60;;;;;;;-1.37;96.46;98579.85;104928;1322;22227;-87
2022/12/03 01:53:00;;;;;;;53.80;48.50;;;;;;;-1.34;96.47;98587.98;104889;1322;22129;-88
2022/12/03 01:55:28;;;;;;;50.20;45.00;;;;;;;-1.31;96.61;98590.59;104489;1329;22699;-89
2022/12/03 01:57:59;;;;;;;53.00;47.80;;;;;;;-1.28;96.53;98594.61;104944;1322;22313;-89
2022/12/03 02:00:28;;;;;;;52.10;46.90;;;;;;;-1.25;96.52;98592.09;104515;1330;22205;-89
2022/12/03 02:03:00;;;;;;;55.20;49.70;;;;;;;-1.27;96.49;98588.52;104754;1329;22728;-89
2022/12/03 02:05:30;;;;;;;57.10;51.50;;;;;;;-1.30;96.44;98590.51;104748;1329;22195;-89
2022/12/03 02:07:59;;;;;;;52.20;46.80;;;;;;;-1.32;96.40;98582.58;104811;1325;22081;-90
2022/12/03 02:10:31;;;;;;;51.30;46.10;;;;;;;-1.34;96.56;98581.77;104548;1324;22246;-90
2022/12/03 02:13:03;;;;;;;51.50;46.60;;;;;;;-1.35;96.35;98581.60;104760;1328;22281;-88
2022/12/03 02:15:31;;;;;;;49.10;44.00;;;;;;;-1.32;96.29;98587.29;104934;1322;22896;-88
2022/12/03 02:17:59;;;;;;;54.80;49.20;;;;;;;-1.32;96.46;98583.11;104947;1314;22194;-87
2022/12/03 02:20:32;;;;;;;56.50;50.90;;;;;;;-1.30;96.48;98585.54;104767;1329;22269;-89
2022/12/03 02:23:12;;;;;;;56.80;51.40;;;;;;;-1.29;96.68;98587.05;104757;1322;22153;-88
2022/12/03 02:25:40;;;;;;;56.00;50.30;;;;;;;-1.30;96.61;98586.56;104654;1329;22086;-89
2022/12/03 02:28:08;;;;;;;53.50;48.00;;;;;;;-1.31;96.44;98587.63;104748;1329;22212;-89
2022/12/03 02:30:36;;;;;;;56.00;50.50;;;;;;;-1.30;96.72;98586.88;104922;1318;22204;-88
2022/12/03 02:33:05;;;;;;;54.40;48.90;;;;;;;-1.27;96.85;98588.88;104783;1328;22274;-89
2022/12/03 02:35:34;;;;;;;58.60;52.20;;;;;;;-1.29;96.79;98582.52;104885;1317;22190;-89
2022/12/03 02:38:15;;;;;;;59.00;52.80;;;;;;;-1.28;96.88;98580.38;104661;1329;22219;-89
2022/12/03 02:40:45;;;;;;;56.20;50.20;;;;;;;-1.30;96.73;98585.05;104783;1328;22253;-88
2022/12/03 02:43:16;;;;;;;58.00;51.80;;;;;;;-1.33;96.85;98593.67;104536;1329;22853;-89
2022/12/03 02:45:49;;;;;;;56.10;50.20;;;;;;;-1.30;96.79;98597.91;104545;1329;22161;-90
2022/12/03 02:48:31;;;;;;;55.10;49.40;;;;;;;-1.25;96.73;98598.19;104472;1329;22678;-89
2022/12/03 02:51:04;;;;;;;58.80;52.50;;;;;;;-1.23;96.93;98596.35;104653;1323;22104;-88
2022/12/03 02:53:41;;;;;;;64.20;52.60;;;;;;;-1.23;96.70;98593.75;104471;1335;22218;-90
2022/12/03 02:56:12;;;;;;;62.10;54.70;;;;;;;-1.25;96.74;98593.52;104524;1329;22841;-90
2022/12/03 02:58:44;;;;;;;64.50;52.90;;;;;;;-1.26;96.90;98586.20;104541;1329;22226;-87
2022/12/03 03:01:15;;;;;;;57.30;50.60;;;;;;;-1.28;96.86;98585.06;104576;1329;22219;-89
2022/12/03 03:03:45;;;;;;;59.80;51.30;;;;;;;-1.28;96.97;98586.27;104750;1329;23251;-89
2022/12/03 03:06:14;;;;;;;59.60;52.50;;;;;;;-1.27;96.98;98583.92;104760;1329;23092;-89
2022/12/03 03:08:42;;;;;;;61.30;54.50;;;;;;;-1.29;97.18;98576.72;104522;1330;22103;-88
2022/12/03 03:11:11;;;;;;;66.00;57.00;;;;;;;-1.30;97.18;98570.90;104577;1330;23055;-88
2022/12/03 03:13:39;;;;;;;61.50;53.00;;;;;;;-1.35;97.21;98566.02;104974;1316;22164;-90
2022/12/03 03:16:07;;;;;;;62.50;52.70;;;;;;;-1.34;97.13;98561.59;104591;1332;22864;-89
2022/12/03 03:18:36;;;;;;;57.80;51.00;;;;;;;-1.36;97.25;98565.86;104609;1329;22127;-89
2022/12/03 03:21:04;;;;;;;65.50;53.40;;;;;;;-1.37;97.41;98567.15;104574;1329;22123;-88
2022/12/03 03:23:32;;;;;;;66.70;52.30;;;;;;;-1.32;97.46;98573.88;104784;1329;22784;-89
2022/12/03 03:26:09;;;;;;;60.50;54.10;;;;;;;-1.29;97.45;98577.48;104592;1330;22090;-90
2022/12/03 03:28:41;;;;;;;69.40;56.90;;;;;;;-1.30;97.83;98578.67;104586;1324;22275;-90
2022/12/03 03:31:11;;;;;;;75.30;61.80;;;;;;;-1.31;97.77;98582.70;104586;1331;22058;-89
2022/12/03 03:33:42;;;;;;;72.90;57.20;;;;;;;-1.33;97.68;98583.83;104527;1332;22161;-90
2022/12/03 03:36:11;;;;;;;69.80;56.00;;;;;;;-1.31;97.70;98587.20;104567;1332;22753;-91
2022/12/03 03:38:40;;;;;;;65.30;55.80;;;;;;;-1.27;97.77;98585.42;104572;1329;22105;-90
2022/12/03 03:41:11;;;;;;;64.20;53.80;;;;;;;-1.23;97.73;98586.19;104562;1329;22779;-91
2022/12/03 03:43:41;;;;;;;69.00;57.50;;;;;;;-1.22;97.73;98585.00;104573;1330;22203;-90
2022/12/03 03:46:10;;;;;;;78.00;61.60;;;;;;;-1.25;97.81;98582.94;104608;1330;22186;-90
2022/12/03 03:48:41;;;;;;;82.00;61.20;;;;;;;-1.27;97.85;98584.31;104461;1334;22221;-89
2022/12/03 03:51:10;;;;;;;73.20;57.50;;;;;;;-1.31;97.85;98590.34;104767;1330;22256;-87
2022/12/03 03:53:41;;;;;;;66.60;54.90;;;;;;;-1.30;98.04;98587.09;104668;1335;22100;-88
2022/12/03 03:56:10;;;;;;;72.50;55.90;;;;;;;-1.26;97.86;98586.44;104559;1331;22827;-89
2022/12/03 03:58:38;;;;;;;74.80;55.30;;;;;;;-1.27;97.71;98589.02;104472;1336;22802;-89
2022/12/03 04:01:08;;;;;;;65.80;55.10;;;;;;;-1.27;97.99;98597.13;104762;1334;22116;-89
2022/12/03 04:03:36;;;;;;;70.70;57.90;;;;;;;-1.29;97.84;98599.08;104570;1336;22213;-88
2022/12/03 04:06:05;;;;;;;73.20;57.30;;;;;;;-1.32;98.01;98594.98;104692;1330;22111;-90
2022/12/03 04:08:33;;;;;;;72.30;57.10;;;;;;;-1.34;98.24;98595.27;104574;1330;22129;-90
2022/12/03 04:13:47;;;;;;;69.90;54.90;;;;;;;-1.32;98.16;98592.58;104565;1325;22102;-89
2022/12/03 04:16:15;;;;;;;66.10;52.90;;;;;;;-1.30;98.18;98596.61;104737;1330;22900;-89
2022/12/03 04:18:43;;;;;;;71.40;56.70;;;;;;;-1.28;98.16;98591.44;104751;1328;22145;-88
2022/12/03 04:24:09;;;;;;;77.10;59.30;;;;;;;-1.32;98.25;98585.10;104733;1330;23017;-89
2022/12/03 04:29:23;;;;;;;76.40;59.00;;;;;;;-1.35;98.34;98585.90;104595;1332;22246;-87
2022/12/03 04:37:24;;;;;;;82.20;61.00;;;;;;;-1.26;98.47;98589.77;104889;1323;22108;-89
2022/12/03 04:39:52;;;;;;;86.60;62.90;;;;;;;-1.25;98.42;98591.02;104628;1330;22139;-88
2022/12/03 04:42:20;;;;;;;77.40;63.90;;;;;;;-1.24;98.55;98590.84;104961;1308;22117;-88
2022/12/03 04:44:48;;;;;;;77.20;56.30;;;;;;;-1.26;98.56;98591.20;104761;1321;22671;-87
2022/12/03 04:47:18;;;;;;;70.40;57.90;;;;;;;-1.27;98.38;98591.43;104556;1325;22265;-87
2022/12/03 04:49:50;;;;;;;82.60;59.30;;;;;;;-1.28;98.45;98594.41;104798;1317;23056;-87
2022/12/03 04:52:19;;;;;;;80.50;59.20;;;;;;;-1.27;98.52;98591.92;104838;1323;22869;-88
2022/12/03 04:54:47;;;;;;;83.20;60.50;;;;;;;-1.26;98.66;98598.98;104938;1311;22184;-87
2022/12/03 04:57:16;;;;;;;77.60;60.60;;;;;;;-1.26;98.64;98601.52;104825;1314;22743;-87
2022/12/03 04:59:44;;;;;;;83.60;61.60;;;;;;;-1.26;98.66;98591.19;104722;1309;22940;-86
2022/12/03 05:02:12;;;;;;;76.30;61.00;;;;;;;-1.26;98.65;98587.62;104755;1331;22212;-86
2022/12/03 05:04:40;;;;;;;69.60;56.10;;;;;;;-1.28;98.63;98587.89;104629;1336;22113;-88
2022/12/03 05:07:10;;;;;;;67.90;56.10;;;;;;;-1.28;98.52;98585.83;104563;1334;22203;-89
2022/12/03 05:09:38;;;;;;;73.00;56.70;;;;;;;-1.29;98.74;98587.17;104799;1330;22200;-88
2022/12/03 05:12:06;;;;;;;79.70;57.70;;;;;;;-1.30;98.70;98582.86;104778;1330;22208;-89
2022/12/03 05:14:35;;;;;;;79.00;61.90;;;;;;;-1.29;98.67;98583.39;104584;1334;22120;-89
2022/12/03 05:17:03;;;;;;;84.70;61.30;;;;;;;-1.29;98.74;98587.17;104522;1334;22269;-89
2022/12/03 05:22:17;;;;;;;86.00;58.90;;;;;;;-1.27;99.02;98584.44;104933;1314;22178;-88
2022/12/03 05:24:45;;;;;;;85.30;60.50;;;;;;;-1.28;99.04;98576.63;104563;1330;22216;-89
2022/12/03 05:27:13;;;;;;;83.30;60.00;;;;;;;-1.26;98.87;98577.25;104763;1330;22150;-88
2022/12/03 05:29:45;;;;;;;79.20;60.30;;;;;;;-1.21;98.96;98579.96;104545;1330;22196;-89
2022/12/03 05:32:13;;;;;;;80.20;60.50;;;;;;;-1.15;99.00;98581.21;104595;1330;22242;-90
2022/12/03 05:34:41;;;;;;;75.00;58.40;;;;;;;-1.11;98.73;98577.30;104567;1330;22103;-89
2022/12/03 05:37:09;;;;;;;79.70;62.30;;;;;;;-1.15;98.72;98579.59;104530;1329;22297;-89
2022/12/03 05:39:37;;;;;;;75.30;58.70;;;;;;;-1.17;98.82;98583.25;104776;1330;22784;-90
2022/12/03 05:44:52;;;;;;;80.80;61.00;;;;;;;-1.26;98.69;98575.77;104666;1332;22194;-92
2022/12/03 05:47:20;;;;;;;77.30;58.50;;;;;;;-1.30;98.79;98572.65;104774;1329;22104;-91
2022/12/03 05:49:48;;;;;;;80.50;62.50;;;;;;;-1.29;98.96;98570.94;104688;1323;22273;-90
2022/12/03 05:52:16;;;;;;;85.20;61.20;;;;;;;-1.28;99.07;98568.54;104583;1329;22810;-89
2022/12/03 05:54:44;;;;;;;83.80;62.70;;;;;;;-1.31;98.98;98566.05;104671;1333;22221;-90
2022/12/03 05:57:11;;;;;;;81.90;60.10;;;;;;;-1.36;99.19;98569.52;104771;1329;22067;-89
2022/12/03 05:59:39;;;;;;;92.90;59.70;;;;;;;-1.42;98.92;98580.52;104749;1329;22241;-89
2022/12/03 06:02:07;;;;;;;88.80;60.20;;;;;;;-1.41;99.26;98583.11;104576;1332;22908;-89
2022/12/03 06:04:37;;;;;;;75.20;59.00;;;;;;;-1.42;99.09;98585.02;104552;1333;22165;-90
2022/12/03 06:07:05;;;;;;;72.90;56.80;;;;;;;-1.43;99.26;98584.94;104740;1329;22170;-90
2022/12/03 06:09:40;;;;;;;90.40;61.70;;;;;;;-1.43;99.40;98586.49;104735;1329;22135;-90
2022/12/03 06:12:08;;;;;;;74.10;59.20;;;;;;;-1.46;99.46;98590.48;104587;1329;22061;-90
2022/12/03 06:14:36;;;;;;;80.20;62.70;;;;;;;-1.48;99.44;98587.67;104534;1330;22976;-89
2022/12/03 06:17:04;;;;;;;79.30;58.40;;;;;;;-1.52;99.35;98583.28;104546;1330;22254;-91
2022/12/03 06:19:32;;;;;;;82.40;60.70;;;;;;;-1.54;99.60;98587.83;104735;1329;22946;-89
2022/12/03 06:22:00;;;;;;;76.40;59.30;;;;;;;-1.56;99.44;98592.09;104563;1329;22140;-89
2022/12/03 06:24:28;;;;;;;79.90;56.50;;;;;;;-1.53;99.42;98594.42;104862;1322;22116;-91
2022/12/03 06:26:56;;;;;;;75.00;58.90;;;;;;;-1.51;99.51;98590.75;104766;1329;22176;-90
2022/12/03 06:29:24;;;;;;;93.10;63.10;;;;;;;-1.48;99.44;98580.18;104597;1330;22276;-91
2022/12/03 06:31:52;;;;;;;87.30;63.10;;;;;;;-1.46;99.77;98580.63;104676;1330;22104;-91
2022/12/03 06:34:20;;;;;;;91.70;65.50;;;;;;;-1.48;99.90;98579.33;104779;1329;22238;-91
2022/12/03 06:36:49;;;;;;;86.90;63.80;;;;;;;-1.52;99.90;98584.71;104568;1329;22110;-90
2022/12/03 06:39:17;;;;;;;83.50;60.30;;;;;;;-1.53;99.85;98588.08;104654;1329;22202;-89
2022/12/03 06:41:44;;;;;;;77.60;59.00;;;;;;;-1.51;99.80;98593.36;104523;1330;22221;-90
2022/12/03 06:44:13;;;;;;;82.50;61.00;;;;;;;-1.49;99.93;98592.48;104468;1334;23041;-90
2022/12/03 06:46:41;;;;;;;88.30;64.20;;;;;;;-1.45;99.78;98592.27;104572;1324;23423;-87
2022/12/03 06:49:09;;;;;;;89.00;64.80;;;;;;;-1.38;99.90;98600.67;104586;1330;22916;-89
2022/12/03 06:51:37;;;;;;;100.30;67.40;;;;;;;-1.35;99.87;98604.17;104510;1330;22206;-89
2022/12/03 06:54:05;;;;;;;97.30;68.50;;;;;;;-1.38;99.82;98607.92;104526;1329;22268;-88
2022/12/03 06:56:33;;;;;;;83.30;61.30;;;;;;;-1.37;99.90;98611.41;104737;1325;23006;-88
2022/12/03 06:59:10;;;;;;;94.60;64.60;;;;;;;-1.35;100.00;98618.27;104875;1325;22145;-88
2022/12/03 07:01:37;;;;;;;96.60;65.90;;;;;;;-1.32;100.00;98620.52;104526;1329;22172;-88
2022/12/03 07:04:05;;;;;;;99.10;66.90;;;;;;;-1.29;99.99;98620.28;104573;1329;22802;-88
2022/12/03 07:06:33;;;;;;;91.80;67.00;;;;;;;-1.27;99.97;98615.31;104754;1329;22203;-88
2022/12/03 07:09:02;;;;;;;96.10;68.20;;;;;;;-1.24;99.96;98622.38;104762;1329;22109;-88
2022/12/03 07:11:30;;;;;;;110.30;71.00;;;;;;;-1.19;99.93;98626.86;104556;1330;22223;-89
2022/12/03 07:14:00;;;;;;;100.20;70.40;;;;;;;-1.18;99.92;98620.68;104513;1330;22293;-87
2022/12/03 07:16:34;;;;;;;103.00;72.50;;;;;;;-1.16;99.92;98615.86;104546;1329;22218;-87
2022/12/03 07:19:04;;;;;;;90.80;63.50;;;;;;;-1.12;99.93;98612.70;104500;1329;22935;-89
2022/12/03 07:21:32;;;;;;;86.70;63.10;;;;;;;-1.10;99.82;98619.08;104448;1329;137937;-88
2022/12/03 07:24:00;;;;;;;97.40;66.30;;;;;;;-1.05;99.95;98622.25;104746;1329;22183;-90
2022/12/03 07:26:28;;;;;;;105.00;68.60;;;;;;;-1.02;99.98;98624.11;104728;1329;22221;-89
2022/12/03 07:28:57;;;;;;;114.80;72.60;;;;;;;-1.02;100.00;98620.34;104499;1329;22749;-89
2022/12/03 07:31:25;;;;;;;120.90;74.50;;;;;;;-1.03;99.99;98620.91;104557;1324;22186;-89
2022/12/03 07:33:54;;;;;;;111.20;72.50;;;;;;;-1.03;99.97;98619.48;104502;1329;22237;-88
2022/12/03 07:36:22;;;;;;;112.20;74.70;;;;;;;-1.01;99.96;98618.79;104553;1329;22120;-89
2022/12/03 07:38:50;;;;;;;99.90;67.80;;;;;;;-0.98;99.96;98620.29;104561;1330;22111;-88
2022/12/03 07:41:18;;;;;;;86.80;64.90;;;;;;;-0.95;100.00;98616.00;104748;1323;22122;-89
2022/12/03 07:43:45;;;;;;;104.70;69.10;;;;;;;-0.94;99.95;98614.17;104520;1330;22227;-88
2022/12/03 07:46:14;;;;;;;100.00;69.70;;;;;;;-0.97;100.00;98615.23;104683;1325;22884;-89
2022/12/03 07:48:42;;;;;;;95.10;67.20;;;;;;;-0.98;100.00;98618.68;104729;1325;22389;-88
2022/12/03 07:51:10;;;;;;;100.30;69.70;;;;;;;-0.93;100.00;98618.93;104848;1322;22795;-89
2022/12/03 07:53:42;;;;;;;99.80;68.00;;;;;;;-0.84;99.99;98615.16;104562;1329;22208;-90
2022/12/03 07:56:10;;;;;;;94.00;66.00;;;;;;;-0.80;100.00;98617.64;104572;1329;22788;-90
2022/12/03 07:58:38;;;;;;;109.60;68.10;;;;;;;-0.77;100.00;98615.06;104951;1321;22101;-90
2022/12/03 08:01:06;;;;;;;111.20;70.40;;;;;;;-0.78;99.98;98612.71;104754;1329;22232;-88
2022/12/03 08:03:35;;;;;;;106.80;64.90;;;;;;;-0.79;100.00;98612.55;104548;1324;22369;-91
2022/12/03 08:06:03;;;;;;;95.10;63.10;;;;;;;-0.88;99.95;98614.11;104575;1329;22182;-89
2022/12/03 08:08:31;;;;;;;99.80;61.90;;;;;;;-0.88;100.00;98608.50;104770;1324;22205;-89
2022/12/03 08:11:01;;;;;;;85.20;61.10;;;;;;;-0.87;100.00;98609.55;104772;1329;22134;-90
2022/12/03 08:13:29;;;;;;;94.60;64.80;;;;;;;-0.88;100.00;98609.52;104858;1321;22122;-91
2022/12/03 08:16:00;;;;;;;105.60;69.60;;;;;;;-0.82;100.00;98605.56;104389;1330;22128;-90
2022/12/03 08:18:28;;;;;;;112.40;67.80;;;;;;;-0.79;99.98;98606.56;104568;1330;22266;-90
2022/12/03 08:20:57;;;;;;;117.20;74.10;;;;;;;-0.75;100.00;98606.30;104732;1330;22192;-91
2022/12/03 08:23:25;;;;;;;118.20;72.50;;;;;;;-0.74;100.00;98607.02;104854;1329;23037;-90
2022/12/03 08:25:53;;;;;;;93.90;67.00;;;;;;;-0.70;100.00;98612.73;104717;1329;22145;-90
2022/12/03 08:28:24;;;;;;;126.30;76.10;;;;;;;-0.67;100.00;98613.16;104837;1329;22211;-88
2022/12/03 08:31:06;;;;;;;111.30;75.80;;;;;;;-0.58;100.00;98608.62;104753;1332;22215;-89
2022/12/03 08:33:36;;;;;;;116.20;75.70;;;;;;;-0.51;100.00;98606.43;104884;1329;22201;-88
2022/12/03 08:40:50;;;;;;;132.90;73.90;;;;;;;-0.41;100.00;98610.38;104878;1329;22142;-91
2022/12/03 08:43:20;;;;;;;103.30;67.20;;;;;;;-0.45;99.97;98609.58;104573;1327;22112;-90
2022/12/03 08:45:50;;;;;;;92.00;66.50;;;;;;;-0.52;99.88;98609.29;104628;1329;22906;-90
2022/12/03 08:48:37;;;;;;;109.40;68.60;;;;;;;-0.56;99.80;98608.33;104584;1329;22878;-90
2022/12/03 08:51:17;;;;;;;98.40;66.90;;;;;;;-0.55;99.85;98612.77;104582;1330;22121;-90
2022/12/03 08:53:48;;;;;;;93.70;65.80;;;;;;;-0.53;99.81;98613.97;104667;1329;22233;-89
2022/12/03 08:56:26;;;;;;;91.70;65.80;;;;;;;-0.56;99.74;98609.43;104585;1329;22784;-90
2022/12/03 08:59:01;;;;;;;106.50;68.70;;;;;;;-0.61;99.83;98611.84;104912;1321;22823;-91
2022/12/03 09:01:33;;;;;;;103.00;67.20;;;;;;;-0.60;99.97;98614.73;104685;1329;22233;-90
2022/12/03 09:04:18;;;;;;;113.50;74.50;;;;;;;-0.59;99.82;98615.98;104889;1322;22104;-87
2022/12/03 09:06:46;;;;;;;;;;;;;;;-0.53;100.00;98617.97;104424;1329;22266;-88
2022/12/03 09:09:15;;;;;;;104.30;74.30;;;;;;;-0.50;100.00;98615.92;104712;1329;22179;-89
2022/12/03 09:11:43;;;;;;;98.60;72.90;;;;;;;-0.43;100.00;98614.49;104944;1322;22180;-91
2022/12/03 09:14:12;;;;;;;103.20;74.00;;;;;;;-0.35;99.95;98615.74;104825;1318;22084;-90
2022/12/03 09:16:46;;;;;;;112.40;74.50;;;;;;;-0.31;100.00;98618.27;104574;1329;22219;-89
2022/12/03 09:19:15;;;;;;;117.10;74.20;;;;;;;-0.29;99.99;98615.58;104559;1329;22209;-89
2022/12/03 09:21:43;;;;;;;131.60;78.70;;;;;;;-0.26;99.94;98607.17;104753;1329;22215;-90
2022/12/03 09:24:11;;;;;;;122.50;79.20;;;;;;;-0.20;100.00;98603.94;104746;1329;22221;-90
2022/12/03 09:26:39;;;;;;;123.30;78.90;;;;;;;-0.14;99.84;98607.16;104419;1329;22913;-92
2022/12/03 09:29:07;;;;;;;131.70;83.10;;;;;;;-0.09;99.99;98612.64;104964;1314;22083;-90
2022/12/03 09:31:39;;;;;;;134.80;88.20;;;;;;;-0.04;100.00;98613.38;104567;1329;22775;-90
2022/12/03 09:34:08;;;;;;;127.70;83.90;;;;;;;-0.00;99.97;98609.33;104774;1329;22110;-92
2022/12/03 09:36:36;;;;;;;128.00;80.10;;;;;;;-0.04;99.87;98609.09;104562;1329;22216;-90
2022/12/03 09:39:05;;;;;;;123.90;77.80;;;;;;;-0.05;100.00;98605.68;104513;1329;22295;-90
2022/12/03 09:41:33;;;;;;;109.90;74.60;;;;;;;-0.01;99.93;98611.69;104753;1329;22282;-91
2022/12/03 09:44:01;;;;;;;97.60;70.70;;;;;;;-0.02;99.53;98609.38;104752;1329;22374;-89
2022/12/03 09:46:34;;;;;;;124.20;79.60;;;;;;;-0.02;99.79;98611.77;104753;1329;22923;-90
2022/12/03 09:49:05;;;;;;;138.00;88.30;;;;;;;-0.03;99.61;98613.16;104523;1329;22231;-89
2022/12/03 09:51:43;;;;;;;106.60;69.60;;;;;;;-0.10;99.51;98615.66;104753;1329;22219;-86
2022/12/03 09:54:25;;;;;;;96.20;69.00;;;;;;;-0.14;99.61;98619.17;104626;1329;22212;-89
2022/12/03 09:56:54;;;;;;;94.80;66.80;;;;;;;-0.13;99.55;98617.66;104482;1329;22290;-88
2022/12/03 09:59:26;;;;;;;106.40;70.70;;;;;;;-0.16;99.46;98615.56;104752;1329;23026;-89
2022/12/03 10:01:54;;;;;;;79.90;66.10;;;;;;;-0.25;99.07;98612.51;104534;1329;22223;-90
2022/12/03 10:04:23;;;;;;;84.30;67.30;;;;;;;-0.32;99.25;98617.88;104771;1329;22097;-90
2022/12/03 10:06:51;;;;;;;93.10;67.40;;;;;;;-0.38;99.50;98619.48;104451;1329;22118;-88
2022/12/03 10:09:27;;;;;;;104.80;68.10;;;;;;;-0.42;99.63;98615.48;104539;1329;22096;-90
2022/12/03 10:11:57;;;;;;;112.00;74.30;;;;;;;-0.40;99.47;98618.80;104560;1329;23050;-89
2022/12/03 10:14:26;;;;;;;116.90;71.70;;;;;;;-0.36;99.79;98612.43;104548;1329;22182;-89
2022/12/03 10:16:55;;;;;;;102.00;72.70;;;;;;;-0.28;99.71;98612.20;104567;1326;22204;-90
2022/12/03 10:19:26;;;;;;;113.50;73.50;;;;;;;-0.24;99.49;98607.09;104458;1329;22836;-88
2022/12/03 10:21:54;;;;;;;124.10;74.10;;;;;;;-0.27;99.41;98610.33;104943;1314;22907;-89
2022/12/03 10:24:31;;;;;;;119.80;76.00;;;;;;;-0.27;99.57;98611.04;104892;1308;22217;-89
2022/12/03 10:27:01;;;;;;;105.40;71.10;;;;;;;-0.25;99.77;98607.58;104637;1329;22172;-87
2022/12/03 10:29:36;;;;;;;94.20;68.80;;;;;;;-0.26;99.22;98603.64;104960;1323;22232;-85
2022/12/03 10:32:09;;;;;;;90.20;67.10;;;;;;;-0.30;99.19;98594.69;104909;1324;22193;-91
2022/12/03 10:34:39;;;;;;;96.90;70.30;;;;;;;-0.32;99.28;98598.98;104860;1323;22262;-90
2022/12/03 10:37:09;;;;;;;95.60;68.40;;;;;;;-0.34;99.36;98599.04;104861;1329;21917;-92
2022/12/03 10:39:58;;;;;;;72.30;62.20;;;;;;;-0.35;99.36;98594.15;104913;1326;21868;-87
2022/12/03 10:42:29;;;;;;;95.10;69.40;;;;;;;-0.34;99.45;98597.89;105139;1291;22140;-90
2022/12/03 10:45:13;;;;;;;101.30;71.30;;;;;;;-0.33;99.28;98595.10;104906;1328;22183;-91
2022/12/03 10:47:42;;;;;;;94.20;69.70;;;;;;;-0.29;99.34;98587.32;104892;1329;21705;-91
2022/12/03 10:50:18;;;;;;;94.40;69.50;;;;;;;-0.19;99.55;98580.50;104833;1329;22351;-92
2022/12/03 10:52:46;;;;;;;88.90;68.70;;;;;;;-0.10;99.51;98582.20;105240;1308;22933;-93
2022/12/03 10:55:15;;;;;;;98.10;70.80;;;;;;;-0.07;99.13;98581.13;104810;1327;22199;-90
2022/12/03 10:57:44;;;;;;;97.40;74.70;;;;;;;-0.09;99.26;98582.80;104905;1329;22281;-89
2022/12/03 11:00:18;;;;;;;101.60;73.00;;;;;;;-0.06;99.46;98584.55;104893;1329;22739;-89
2022/12/03 11:02:47;;;;;;;109.60;71.70;;;;;;;0.03;99.71;98590.72;105115;1308;22181;-91
2022/12/03 11:05:26;;;;;;;91.60;70.50;;;;;;;0.11;99.53;98587.56;104763;1312;23015;-91
2022/12/03 11:07:54;;;;;;;100.30;73.10;;;;;;;0.20;99.38;98586.20;104905;1320;22287;-89
2022/12/03 11:10:23;;;;;;;117.20;79.50;;;;;;;0.22;99.35;98584.02;104718;1314;23050;-93
2022/12/03 11:13:33;;;;;;;97.00;74.80;;;;;;;0.22;99.09;98578.60;104781;1314;22836;-91
2022/12/03 11:16:09;;;;;;;125.20;80.40;;;;;;;0.09;99.18;98560.20;104774;1329;22259;-91
2022/12/03 11:18:37;;;;;;;96.60;73.70;;;;;;;0.19;99.35;98579.46;104864;1317;22185;-92
2022/12/03 11:21:07;;;;;;;124.10;78.90;;;;;;;0.20;99.12;98582.04;104796;1308;22251;-91
2022/12/03 11:23:44;;;;;;;97.20;73.70;;;;;;;0.24;99.07;98582.70;104797;1315;22212;-93
2022/12/03 11:26:13;;;;;;;90.90;73.20;;;;;;;0.28;99.01;98579.09;105025;1310;22257;-92
2022/12/03 11:28:46;;;;;;;92.90;74.50;;;;;;;0.25;98.85;98575.19;104658;1304;22175;-92
2022/12/03 11:31:46;;;;;;;93.00;72.10;;;;;;;0.22;99.02;98577.48;104609;1318;22190;-91
2022/12/03 11:34:17;;;;;;;92.20;70.50;;;;;;;0.17;98.86;98575.73;104654;1310;22120;-90
2022/12/03 11:37:10;;;;;;;115.10;77.80;;;;;;;0.20;98.74;98572.41;105122;1322;22258;-91
2022/12/03 11:39:46;;;;;;;90.70;68.80;;;;;;;0.17;98.40;98570.70;104825;1306;22266;-91
2022/12/03 11:42:24;;;;;;;88.80;68.50;;;;;;;0.19;98.76;98570.34;104824;1305;22203;-93
2022/12/03 11:45:01;;;;;;;92.00;71.60;;;;;;;0.25;98.86;98564.68;105066;1306;22114;-90